Time;durP1;ratioP1;P1;durP2;ratioP2;P2;SDS_P1;SDS_P2;PMS_P1;PMS_P2;Temp;Humidity;BMP_temperature;BMP_pressure;BME280_temperature;BME280_humidity;BME280_pressure;Samples;Min_cycle;Max_cycle;Signal;HPM_P1;HPM_P2
2021/04/06 00:01:44;;;;;;;0.70;0.10;;;20.40;34.70;;;;;;5026922;28;20033;-78
2021/04/06 00:04:15;;;;;;;0.27;0.00;;;20.40;34.70;;;;;;5032832;28;20024;-78
2021/04/06 00:06:44;;;;;;;0.35;0.10;;;20.40;34.60;;;;;;5046143;28;20405;-78
2021/04/06 00:09:17;;;;;;;0.60;0.10;;;20.40;34.70;;;;;;5048582;28;20025;-78
2021/04/06 00:11:46;;;;;;;0.43;0.08;;;20.40;34.70;;;;;;5011638;28;20489;-78
2021/04/06 00:14:14;;;;;;;0.52;0.08;;;20.40;34.70;;;;;;5005149;28;20638;-77
2021/04/06 00:16:41;;;;;;;0.68;0.10;;;20.40;34.70;;;;;;5044845;28;20574;-78
2021/04/06 00:19:09;;;;;;;0.20;0.00;;;20.40;34.80;;;;;;5025018;28;20025;-77
2021/04/06 00:21:37;;;;;;;0.45;0.10;;;20.40;34.60;;;;;;5029211;28;20542;-77
2021/04/06 00:24:05;;;;;;;0.57;0.03;;;20.40;34.70;;;;;;5032146;28;20030;-77
2021/04/06 00:26:50;;;;;;;0.00;0.00;;;20.30;34.70;;;;;;5029790;28;20021;-78
2021/04/06 00:29:17;;;;;;;0.55;0.00;;;20.30;34.70;;;;;;5031978;28;20108;-78
2021/04/06 00:31:47;;;;;;;0.22;0.00;;;20.30;34.60;;;;;;5013329;28;20555;-78
2021/04/06 00:34:15;;;;;;;1.30;0.10;;;20.30;34.50;;;;;;5016196;28;20017;-78
2021/04/06 00:36:43;;;;;;;1.25;0.00;;;20.30;34.60;;;;;;5025391;28;20025;-78
2021/04/06 00:39:11;;;;;;;0.55;0.10;;;20.30;34.60;;;;;;5035064;28;20067;-77
2021/04/06 00:41:38;;;;;;;0.75;0.10;;;20.30;34.60;;;;;;5024743;28;20478;-78
2021/04/06 00:44:13;;;;;;;0.40;0.05;;;20.30;34.60;;;;;;5030212;28;20032;-78
2021/04/06 00:46:45;;;;;;;0.30;0.10;;;20.30;34.50;;;;;;5029871;28;20017;-77
2021/04/06 00:49:13;;;;;;;0.10;0.00;;;20.30;34.60;;;;;;5033628;28;20013;-78
2021/04/06 00:51:40;;;;;;;0.45;0.00;;;20.20;35.10;;;;;;5029534;28;20044;-77
2021/04/06 00:54:11;;;;;;;0.93;0.10;;;20.20;34.60;;;;;;5026670;28;20017;-77
2021/04/06 00:56:41;;;;;;;0.10;0.00;;;20.20;34.60;;;;;;5025494;28;20025;-77
2021/04/06 00:59:12;;;;;;;0.17;0.00;;;20.20;34.60;;;;;;5029081;28;20021;-77
2021/04/06 01:01:43;;;;;;;0.30;0.00;;;20.20;34.60;;;;;;5048452;28;20056;-77
2021/04/06 01:04:10;;;;;;;0.40;0.00;;;20.20;34.50;;;;;;5047224;28;20021;-77
2021/04/06 01:07:24;;;;;;;0.30;0.00;;;20.20;34.50;;;;;;5034402;28;20123;-77
2021/04/06 01:09:53;;;;;;;0.40;0.00;;;20.20;34.70;;;;;;5015432;28;20063;-77
2021/04/06 01:12:25;;;;;;;0.47;0.00;;;20.20;34.50;;;;;;5022410;28;20021;-77
2021/04/06 01:14:53;;;;;;;0.60;0.00;;;20.20;34.70;;;;;;5028693;28;20021;-77
2021/04/06 01:17:23;;;;;;;0.30;0.00;;;20.20;34.80;;;;;;5027008;28;20069;-77
2021/04/06 01:19:49;;;;;;;0.88;0.00;;;20.20;34.70;;;;;;5029235;28;20360;-77
2021/04/06 01:22:17;;;;;;;1.27;0.00;;;20.10;34.70;;;;;;5027114;28;20693;-77
2021/04/06 01:24:45;;;;;;;0.32;0.00;;;20.10;34.70;;;;;;5032934;28;20056;-77
2021/04/06 01:27:14;;;;;;;0.30;0.00;;;20.10;34.70;;;;;;5016962;28;20028;-78
2021/04/06 01:29:50;;;;;;;0.47;0.10;;;20.10;34.80;;;;;;5025861;28;20404;-77
2021/04/06 01:32:18;;;;;;;0.20;0.00;;;20.10;34.70;;;;;;5046060;28;20045;-77
2021/04/06 01:34:45;;;;;;;0.30;0.00;;;20.10;34.70;;;;;;5027680;28;20623;-77
2021/04/06 01:37:11;;;;;;;0.52;0.00;;;20.10;34.70;;;;;;5039685;28;20100;-77
2021/04/06 01:39:37;;;;;;;0.30;0.00;;;20.00;34.80;;;;;;5052855;28;20021;-77
2021/04/06 01:42:05;;;;;;;0.20;0.00;;;20.10;34.70;;;;;;5035576;28;20023;-78
2021/04/06 01:44:34;;;;;;;0.35;0.00;;;20.00;34.70;;;;;;5041112;28;20038;-78
2021/04/06 01:47:01;;;;;;;0.20;0.00;;;20.10;34.70;;;;;;5024441;28;20022;-78
2021/04/06 01:49:28;;;;;;;0.40;0.10;;;20.00;34.60;;;;;;5048314;28;20108;-78
2021/04/06 01:51:55;;;;;;;0.85;0.00;;;20.00;34.60;;;;;;5015082;28;20029;-78
2021/04/06 01:54:22;;;;;;;0.20;0.00;;;20.00;34.70;;;;;;5030360;28;20021;-78
2021/04/06 01:59:35;;;;;;;1.00;0.05;;;20.00;34.60;;;;;;5054009;28;20710;-78
2021/04/06 02:02:03;;;;;;;0.38;0.00;;;20.00;34.70;;;;;;5050670;28;20573;-77
2021/04/06 02:04:30;;;;;;;0.13;0.00;;;20.00;34.70;;;;;;5046977;28;20026;-78
2021/04/06 02:06:59;;;;;;;0.38;0.05;;;20.00;34.80;;;;;;5045967;28;20028;-78
2021/04/06 02:09:26;;;;;;;0.20;0.00;;;20.00;34.80;;;;;;5029982;28;20449;-78
2021/04/06 02:11:52;;;;;;;0.40;0.00;;;19.90;34.80;;;;;;5029021;28;20401;-78
2021/04/06 02:14:19;;;;;;;0.35;0.00;;;19.90;34.70;;;;;;5047072;28;20071;-78
2021/04/06 02:16:53;;;;;;;0.63;0.05;;;19.90;34.70;;;;;;5042991;28;20028;-77
2021/04/06 02:19:40;;;;;;;0.22;0.00;;;19.90;34.70;;;;;;5040275;28;20598;-78
2021/04/06 02:22:16;;;;;;;0.30;0.00;;;20.00;34.80;;;;;;5029566;28;20046;-77
2021/04/06 02:24:45;;;;;;;0.40;0.00;;;19.90;34.60;;;;;;5044280;28;20549;-77
2021/04/06 02:27:19;;;;;;;0.10;0.00;;;19.90;34.90;;;;;;5025581;28;20022;-77
2021/04/06 02:29:54;;;;;;;1.00;0.10;;;19.90;34.60;;;;;;5044744;28;20028;-77
2021/04/06 02:32:32;;;;;;;0.55;0.00;;;19.90;34.70;;;;;;5023592;28;20061;-77
2021/04/06 02:35:06;;;;;;;0.30;0.00;;;19.90;34.70;;;;;;5025607;28;20017;-78
2021/04/06 02:37:35;;;;;;;0.03;0.00;;;19.90;34.70;;;;;;5032713;28;20024;-77
2021/04/06 02:40:06;;;;;;;0.75;0.10;;;19.90;34.70;;;;;;5029801;28;20036;-78
2021/04/06 02:42:44;;;;;;;0.50;0.08;;;19.90;34.60;;;;;;5033032;28;20099;-78
2021/04/06 02:45:20;;;;;;;1.08;0.00;;;19.90;34.70;;;;;;5043191;28;20475;-77
2021/04/06 02:48:08;;;;;;;0.57;0.00;;;19.90;34.70;;;;;;5036377;28;20519;-78
2021/04/06 02:50:36;;;;;;;0.20;0.00;;;19.90;34.80;;;;;;5030228;28;20052;-78
2021/04/06 02:53:07;;;;;;;0.32;0.00;;;19.80;34.70;;;;;;5028073;28;20076;-78
2021/04/06 02:55:34;;;;;;;0.55;0.00;;;19.80;34.70;;;;;;5021144;28;20427;-78
2021/04/06 02:58:00;;;;;;;1.27;0.00;;;19.80;34.80;;;;;;5050943;28;20484;-77
2021/04/06 03:00:26;;;;;;;2.00;0.10;;;19.80;34.70;;;;;;5014625;28;20025;-78
2021/04/06 03:02:53;;;;;;;0.85;0.00;;;19.80;34.70;;;;;;5013412;28;20048;-77
2021/04/06 03:05:29;;;;;;;0.65;0.10;;;19.80;34.70;;;;;;5013040;28;20033;-77
2021/04/06 03:07:55;;;;;;;0.47;0.00;;;19.80;34.70;;;;;;5032990;28;20029;-77
2021/04/06 03:10:23;;;;;;;0.20;0.00;;;19.80;34.70;;;;;;5011204;28;20029;-79
2021/04/06 03:12:50;;;;;;;0.55;0.00;;;19.80;34.70;;;;;;5011822;28;20024;-78
2021/04/06 03:15:27;;;;;;;0.45;0.00;;;19.80;34.70;;;;;;5051473;28;20032;-78
2021/04/06 03:17:56;;;;;;;0.40;0.00;;;19.80;34.70;;;;;;5048195;28;20523;-78
2021/04/06 03:20:26;;;;;;;1.13;0.00;;;19.80;34.60;;;;;;5044449;28;20057;-78
2021/04/06 03:22:54;;;;;;;0.32;0.00;;;19.70;34.60;;;;;;5046609;28;20056;-77
2021/04/06 03:25:21;;;;;;;0.60;0.00;;;19.70;34.70;;;;;;5049559;28;20036;-77
2021/04/06 03:27:48;;;;;;;0.17;0.00;;;19.70;34.70;;;;;;5046563;28;20033;-77
2021/04/06 03:30:32;;;;;;;1.15;0.10;;;19.70;34.70;;;;;;5012481;28;20571;-78
2021/04/06 03:33:09;;;;;;;0.22;0.10;;;19.70;34.70;;;;;;5032470;28;20388;-78
2021/04/06 03:35:37;;;;;;;0.20;0.00;;;19.70;34.70;;;;;;5030290;28;20508;-77
2021/04/06 03:38:05;;;;;;;0.30;0.00;;;19.70;34.60;;;;;;5049732;28;20032;-78
2021/04/06 03:40:36;;;;;;;0.55;0.10;;;19.70;34.60;;;;;;5033586;28;20040;-77
2021/04/06 03:43:21;;;;;;;0.75;0.00;;;19.70;34.60;;;;;;5033057;28;20397;-77
2021/04/06 03:46:01;;;;;;;0.70;0.10;;;19.70;34.60;;;;;;5030839;28;20417;-77
2021/04/06 03:48:29;;;;;;;0.75;0.20;;;19.70;34.70;;;;;;5016280;28;20029;-77
2021/04/06 03:50:56;;;;;;;0.95;0.00;;;19.70;34.60;;;;;;5046028;28;20025;-77
2021/04/06 03:53:25;;;;;;;0.40;0.00;;;19.70;34.60;;;;;;5028704;28;20123;-77
2021/04/06 03:56:08;;;;;;;0.50;0.10;;;19.70;34.70;;;;;;5014991;28;20043;-77
2021/04/06 03:58:57;;;;;;;0.20;0.00;;;19.60;34.50;;;;;;5034708;28;20024;-77
2021/04/06 04:01:21;;;;;;;0.15;0.00;;;19.60;34.70;;;;;;5034333;28;20029;-77
2021/04/06 04:03:52;;;;;;;0.30;0.03;;;19.60;34.70;;;;;;5029288;28;20098;-77
2021/04/06 04:06:26;;;;;;;0.43;0.10;;;19.60;34.60;;;;;;5029770;28;20037;-77
2021/04/06 04:08:53;;;;;;;1.33;0.20;;;19.60;34.70;;;;;;5046592;28;20025;-77
2021/04/06 04:11:20;;;;;;;0.28;0.00;;;19.60;34.60;;;;;;5032523;28;20112;-77
2021/04/06 04:13:47;;;;;;;0.73;0.10;;;19.60;34.60;;;;;;5043534;28;20021;-77
2021/04/06 04:16:13;;;;;;;0.90;0.10;;;19.60;34.70;;;;;;5045483;28;20040;-78
2021/04/06 04:18:39;;;;;;;1.90;0.00;;;19.60;34.70;;;;;;5042367;28;20029;-77
2021/04/06 04:21:05;;;;;;;0.50;0.00;;;19.60;34.60;;;;;;5048714;28;20021;-77
2021/04/06 04:23:32;;;;;;;0.57;0.00;;;19.60;34.70;;;;;;5049326;28;20037;-77
2021/04/06 04:25:57;;;;;;;0.52;0.00;;;19.60;34.60;;;;;;5022512;28;20025;-77
2021/04/06 04:28:24;;;;;;;0.95;0.00;;;19.60;34.70;;;;;;5046178;28;20024;-77
2021/04/06 04:30:51;;;;;;;0.98;0.20;;;19.60;34.60;;;;;;5053013;28;20107;-77
2021/04/06 04:33:17;;;;;;;0.95;0.00;;;19.60;34.60;;;;;;5025625;28;20021;-77
2021/04/06 04:35:43;;;;;;;0.50;0.00;;;19.50;34.60;;;;;;5030397;28;20032;-77
2021/04/06 04:38:10;;;;;;;1.67;0.03;;;19.50;34.70;;;;;;5013456;28;20668;-77
2021/04/06 04:40:40;;;;;;;0.40;0.00;;;19.60;34.60;;;;;;5030112;28;20021;-76
2021/04/06 04:43:06;;;;;;;2.03;0.10;;;19.50;34.50;;;;;;5009920;28;20040;-77
2021/04/06 04:45:32;;;;;;;0.40;0.10;;;19.50;34.60;;;;;;5049094;28;20013;-78
2021/04/06 04:47:58;;;;;;;1.23;0.05;;;19.50;34.50;;;;;;5025546;28;20025;-77
2021/04/06 04:50:24;;;;;;;4.03;0.00;;;19.50;34.60;;;;;;5028204;28;20013;-77
2021/04/06 04:52:50;;;;;;;0.30;0.00;;;19.50;34.60;;;;;;5029289;28;20025;-78
2021/04/06 04:55:18;;;;;;;0.85;0.00;;;19.50;34.60;;;;;;5029448;28;20021;-78
2021/04/06 04:57:44;;;;;;;0.20;0.00;;;19.50;34.60;;;;;;5022508;28;20532;-78
2021/04/06 05:00:12;;;;;;;0.40;0.10;;;19.50;34.70;;;;;;5036881;28;20021;-78
2021/04/06 05:02:38;;;;;;;0.30;0.00;;;19.50;34.70;;;;;;5031456;28;20025;-78
2021/04/06 05:05:06;;;;;;;0.68;0.00;;;19.40;34.60;;;;;;5042075;28;20595;-78
2021/04/06 05:07:32;;;;;;;0.77;0.10;;;19.40;34.60;;;;;;5026884;28;20059;-77
2021/04/06 05:09:58;;;;;;;0.40;0.10;;;19.40;34.80;;;;;;5009564;28;20481;-78
2021/04/06 05:12:24;;;;;;;0.90;0.00;;;19.40;34.70;;;;;;5011083;28;20385;-78
2021/04/06 05:14:51;;;;;;;0.50;0.03;;;19.40;34.80;;;;;;5029889;28;20029;-78
2021/04/06 05:17:17;;;;;;;0.15;0.00;;;19.40;34.90;;;;;;5024035;28;20029;-78
2021/04/06 05:19:43;;;;;;;0.30;0.00;;;19.40;34.80;;;;;;5013920;28;20032;-78
2021/04/06 05:22:10;;;;;;;0.80;0.00;;;19.40;35.00;;;;;;5011340;28;20025;-78
2021/04/06 05:24:36;;;;;;;0.20;0.00;;;19.40;35.00;;;;;;5031309;28;20400;-78
2021/04/06 05:27:02;;;;;;;1.65;0.00;;;19.60;34.90;;;;;;5007842;28;20040;-78
2021/04/06 05:29:28;;;;;;;0.43;0.00;;;19.70;34.60;;;;;;5045432;28;20021;-78
2021/04/06 05:31:54;;;;;;;0.45;0.00;;;19.90;34.40;;;;;;5026021;28;20021;-77
2021/04/06 05:34:21;;;;;;;0.50;0.00;;;20.10;34.30;;;;;;5040491;28;20024;-77
2021/04/06 05:36:47;;;;;;;0.75;0.20;;;20.20;34.10;;;;;;5040985;28;20047;-78
2021/04/06 05:39:15;;;;;;;0.40;0.00;;;20.30;33.90;;;;;;5007106;28;20030;-78
2021/04/06 05:41:48;;;;;;;1.00;0.00;;;20.30;33.80;;;;;;5053247;28;20716;-77
2021/04/06 05:44:16;;;;;;;0.00;0.00;;;20.40;33.80;;;;;;5025450;28;20064;-78
2021/04/06 05:46:45;;;;;;;0.30;0.00;;;20.40;33.70;;;;;;5042332;28;20040;-77
2021/04/06 05:49:15;;;;;;;1.13;0.17;;;20.50;33.70;;;;;;5026158;28;20028;-77
2021/04/06 05:51:42;;;;;;;0.43;0.03;;;20.50;33.60;;;;;;5050520;28;20053;-77
2021/04/06 05:54:11;;;;;;;0.47;0.00;;;20.60;33.60;;;;;;5023067;28;20017;-77
2021/04/06 05:56:37;;;;;;;0.30;0.00;;;20.60;33.70;;;;;;5022061;28;20071;-77
2021/04/06 05:59:05;;;;;;;0.70;0.00;;;20.60;33.60;;;;;;5028724;28;20025;-78
2021/04/06 06:01:32;;;;;;;0.20;0.00;;;20.70;33.60;;;;;;5046483;28;20036;-78
2021/04/06 06:03:58;;;;;;;0.25;0.00;;;20.70;33.50;;;;;;5012717;28;20381;-78
2021/04/06 06:06:25;;;;;;;0.45;0.00;;;20.70;33.60;;;;;;5046171;28;20025;-78
2021/04/06 06:08:56;;;;;;;0.25;0.00;;;20.70;33.70;;;;;;5041981;28;20057;-78
2021/04/06 06:11:22;;;;;;;1.30;0.00;;;20.80;33.90;;;;;;5031998;28;20016;-77
2021/04/06 06:13:48;;;;;;;0.40;0.10;;;20.80;33.90;;;;;;5009594;28;20029;-77
2021/04/06 06:16:20;;;;;;;0.52;0.00;;;20.80;34.00;;;;;;5033458;28;20061;-77
2021/04/06 06:18:55;;;;;;;;;;;20.80;34.00;;;;;;5050447;28;20055;-77
2021/04/06 06:21:22;;;;;;;0.60;0.10;;;20.80;34.10;;;;;;5029915;28;19954;-78
2021/04/06 06:23:49;;;;;;;0.68;0.00;;;20.80;34.20;;;;;;5028649;28;20040;-77
2021/04/06 06:26:17;;;;;;;0.45;0.00;;;20.70;34.70;;;;;;5011374;28;20018;-77
2021/04/06 06:29:05;;;;;;;0.95;0.00;;;20.70;34.20;;;;;;5047490;28;20086;-77
2021/04/06 06:31:52;;;;;;;0.40;0.00;;;20.70;34.20;;;;;;5024213;28;20045;-78
2021/04/06 06:34:26;;;;;;;1.05;0.03;;;20.70;34.30;;;;;;5016343;28;20448;-77
2021/04/06 06:37:10;;;;;;;0.45;0.03;;;20.70;34.80;;;;;;5026362;28;20073;-77
2021/04/06 06:39:38;;;;;;;1.65;0.10;;;20.60;34.30;;;;;;5008800;28;20037;-77
2021/04/06 06:42:11;;;;;;;0.50;0.10;;;20.60;34.30;;;;;;5028703;28;20092;-77
2021/04/06 06:44:38;;;;;;;1.05;0.10;;;20.60;34.30;;;;;;5028506;28;20103;-76
2021/04/06 06:47:07;;;;;;;0.82;0.10;;;20.60;34.40;;;;;;5045009;28;20474;-77
2021/04/06 06:49:44;;;;;;;1.00;0.03;;;20.50;34.30;;;;;;5025821;28;20469;-76
2021/04/06 06:52:22;;;;;;;0.73;0.10;;;20.50;34.40;;;;;;5030906;28;20025;-77
2021/04/06 06:54:57;;;;;;;0.60;0.10;;;20.60;47.20;;;;;;5049986;28;20239;-77
2021/04/06 06:57:34;;;;;;;1.02;0.10;;;20.70;45.90;;;;;;5033370;28;20112;-78
2021/04/06 07:00:15;;;;;;;1.25;0.10;;;20.70;45.90;;;;;;5031955;28;20033;-78
2021/04/06 07:02:43;;;;;;;0.30;0.10;;;20.70;45.90;;;;;;5032749;28;20052;-77
2021/04/06 07:05:17;;;;;;;2.38;0.20;;;20.70;46.20;;;;;;5028851;28;20035;-79
2021/04/06 07:07:49;;;;;;;1.08;0.10;;;20.80;46.30;;;;;;5031267;28;20041;-79
2021/04/06 07:10:15;;;;;;;;;;;20.70;46.50;;;;;;5015794;28;20408;-79
2021/04/06 07:12:46;;;;;;;0.88;0.10;;;20.70;46.60;;;;;;5057955;28;19909;-79
2021/04/06 07:15:16;;;;;;;0.38;0.00;;;20.60;46.60;;;;;;5028100;28;20021;-79
2021/04/06 07:17:43;;;;;;;0.82;0.15;;;20.60;46.70;;;;;;5013073;28;20033;-80
2021/04/06 07:20:19;;;;;;;1.20;0.10;;;20.50;47.00;;;;;;5033249;28;20512;-80
2021/04/06 07:22:47;;;;;;;0.88;0.10;;;20.60;46.80;;;;;;5030133;28;20029;-79
2021/04/06 07:25:14;;;;;;;3.47;0.43;;;20.50;46.90;;;;;;5026895;28;20467;-79
2021/04/06 07:27:43;;;;;;;1.08;0.25;;;20.60;46.80;;;;;;5028328;28;20071;-80
2021/04/06 07:30:12;;;;;;;1.35;0.10;;;20.50;47.00;;;;;;5026272;28;20021;-80
2021/04/06 07:32:41;;;;;;;1.67;0.25;;;20.50;47.00;;;;;;5029505;28;20029;-80
2021/04/06 07:35:09;;;;;;;0.95;0.25;;;20.50;46.80;;;;;;5043167;28;20025;-79
2021/04/06 07:37:46;;;;;;;0.57;0.15;;;20.50;46.90;;;;;;5045444;28;20033;-77
2021/04/06 07:40:15;;;;;;;0.73;0.20;;;20.60;46.80;;;;;;5009631;28;20393;-78
2021/04/06 07:42:44;;;;;;;1.30;0.20;;;20.70;46.80;;;;;;5031503;28;20536;-79
2021/04/06 07:45:30;;;;;;;2.63;0.35;;;20.90;47.00;;;;;;5011511;28;20024;-80
2021/04/06 07:47:56;;;;;;;0.80;0.17;;;21.10;46.90;;;;;;5031224;28;20493;-77
2021/04/06 07:50:45;;;;;;;2.63;0.40;;;21.20;46.80;;;;;;5030673;28;20029;-79
2021/04/06 07:53:31;;;;;;;0.50;0.17;;;21.30;46.80;;;;;;5045343;28;20527;-77
2021/04/06 07:55:59;;;;;;;1.90;0.22;;;21.50;46.70;;;;;;5043726;28;20101;-76
2021/04/06 07:58:52;;;;;;;2.05;0.15;;;21.60;46.90;;;;;;5025595;28;20437;-75
2021/04/06 08:01:30;;;;;;;1.17;0.20;;;21.70;46.90;;;;;;5029024;28;20033;-77
2021/04/06 08:03:57;;;;;;;1.65;0.30;;;21.80;47.00;;;;;;5024243;28;20400;-75
2021/04/06 08:06:41;;;;;;;1.80;0.10;;;21.80;46.90;;;;;;5043548;28;20115;-75
2021/04/06 08:09:34;;;;;;;2.45;0.10;;;21.80;46.90;;;;;;5010211;28;20017;-76
2021/04/06 08:12:15;;;;;;;1.38;0.13;;;21.80;47.00;;;;;;5025673;28;20060;-76
2021/04/06 08:14:45;;;;;;;1.15;0.30;;;21.90;47.00;;;;;;5044414;28;20037;-76
2021/04/06 08:17:29;;;;;;;0.63;0.15;;;21.90;46.90;;;;;;5025831;28;20053;-75
2021/04/06 08:19:54;;;;;;;0.90;0.10;;;21.90;47.00;;;;;;5025599;28;20033;-76
2021/04/06 08:22:22;;;;;;;0.85;0.10;;;21.90;46.90;;;;;;5024309;28;21566;-77
2021/04/06 08:24:48;;;;;;;1.33;0.20;;;21.90;47.10;;;;;;5045513;28;20033;-77
2021/04/06 08:27:34;;;;;;;0.45;0.10;;;21.90;47.00;;;;;;5026235;28;20106;-79
2021/04/06 08:30:15;;;;;;;0.90;0.20;;;21.80;47.10;;;;;;5027279;28;20021;-78
2021/04/06 08:32:59;;;;;;;1.08;0.17;;;21.80;47.50;;;;;;5043241;28;20330;-77
2021/04/06 08:40:55;;;;;;;0.90;0.10;;;21.60;47.80;;;;;;5026428;28;20515;-77
2021/04/06 08:43:29;;;;;;;3.33;0.20;;;21.70;47.70;;;;;;5032782;28;20025;-79
2021/04/06 08:46:12;;;;;;;2.38;0.40;;;21.80;47.60;;;;;;5023443;28;20442;-76
2021/04/06 08:48:51;;;;;;;1.05;0.20;;;21.70;47.60;;;;;;5024202;28;20033;-76
2021/04/06 08:51:23;;;;;;;1.33;0.25;;;21.70;47.60;;;;;;5008325;28;20025;-75
2021/04/06 08:53:58;;;;;;;2.10;0.10;;;21.70;47.70;;;;;;5021443;28;20032;-76
2021/04/06 08:56:36;;;;;;;1.55;0.30;;;21.70;47.70;;;;;;5023857;28;20059;-76
2021/04/06 08:59:32;;;;;;;0.93;0.20;;;21.70;47.70;;;;;;5025602;28;20025;-75
2021/04/06 09:02:00;;;;;;;0.88;0.20;;;21.70;47.80;;;;;;5024575;28;20477;-78
2021/04/06 09:04:31;;;;;;;0.40;0.10;;;21.70;47.70;;;;;;5044472;28;20390;-77
2021/04/06 09:06:57;;;;;;;1.90;0.20;;;21.60;48.20;;;;;;5042976;28;20032;-76
2021/04/06 09:09:29;;;;;;;1.00;0.13;;;21.60;48.00;;;;;;5028237;28;20014;-77
2021/04/06 09:11:58;;;;;;;1.60;0.10;;;21.60;48.00;;;;;;5024454;28;20384;-76
2021/04/06 09:14:25;;;;;;;0.93;0.20;;;21.60;47.90;;;;;;5026740;28;20099;-77
2021/04/06 09:16:52;;;;;;;1.15;0.20;;;21.60;47.90;;;;;;5023272;28;20025;-77
2021/04/06 09:19:19;;;;;;;3.97;0.20;;;21.70;48.10;;;;;;5025511;28;20090;-77
2021/04/06 09:21:51;;;;;;;0.80;0.25;;;21.70;48.20;;;;;;5024142;28;20121;-77
2021/04/06 09:24:18;;;;;;;2.50;0.30;;;21.70;48.40;;;;;;5025525;28;20572;-77
2021/04/06 09:26:45;;;;;;;0.50;0.20;;;21.70;48.50;;;;;;5043551;28;20029;-77
2021/04/06 09:29:26;;;;;;;1.10;0.10;;;21.70;48.30;;;;;;5008035;28;20027;-78
2021/04/06 09:31:58;;;;;;;1.55;0.10;;;21.70;48.20;;;;;;5023569;28;20030;-78
2021/04/06 09:34:27;;;;;;;1.00;0.13;;;21.70;48.20;;;;;;5025545;28;20445;-79
2021/04/06 09:37:01;;;;;;;2.60;0.30;;;21.60;47.90;;;;;;5026867;28;20370;-78
2021/04/06 09:39:28;;;;;;;0.77;0.30;;;21.70;48.20;;;;;;5024539;28;20029;-78
2021/04/06 09:41:55;;;;;;;1.13;0.25;;;21.70;48.10;;;;;;5023252;28;20075;-78
2021/04/06 09:44:31;;;;;;;0.75;0.10;;;21.70;47.90;;;;;;5032466;28;20032;-80
2021/04/06 09:46:59;;;;;;;3.17;0.20;;;21.70;48.10;;;;;;5036881;28;20033;-80
2021/04/06 09:49:31;;;;;;;1.88;0.20;;;21.70;48.20;;;;;;5011941;28;20445;-79
2021/04/06 09:51:58;;;;;;;1.52;0.10;;;21.70;48.40;;;;;;5025922;28;20025;-79
2021/04/06 09:54:28;;;;;;;0.63;0.10;;;21.70;48.00;;;;;;5008060;28;20108;-78
2021/04/06 09:56:55;;;;;;;0.30;0.10;;;21.60;48.20;;;;;;5025269;28;20094;-77
2021/04/06 09:59:21;;;;;;;1.70;0.10;;;21.60;48.00;;;;;;5053987;28;20029;-77
2021/04/06 10:01:53;;;;;;;0.52;0.20;;;21.70;47.90;;;;;;5030073;28;20763;-78
2021/04/06 10:04:32;;;;;;;5.90;0.20;;;21.70;48.30;;;;;;5012538;28;20116;-76
2021/04/06 10:07:11;;;;;;;4.53;0.25;;;21.70;48.10;;;;;;5043228;28;20504;-76
2021/04/06 10:09:41;;;;;;;0.47;0.15;;;21.70;48.20;;;;;;5042017;28;20090;-77
2021/04/06 10:12:08;;;;;;;0.57;0.10;;;21.70;47.70;;;;;;5023086;28;20032;-76
2021/04/06 10:14:34;;;;;;;1.10;0.10;;;21.80;47.80;;;;;;5028824;28;20116;-77
2021/04/06 10:17:03;;;;;;;0.75;0.10;;;21.80;47.70;;;;;;5030843;28;20087;-77
2021/04/06 10:19:31;;;;;;;1.55;0.10;;;21.70;47.90;;;;;;5013093;28;20047;-77
2021/04/06 10:22:06;;;;;;;0.55;0.10;;;21.80;48.10;;;;;;5014618;28;20029;-78
2021/04/06 10:24:36;;;;;;;0.80;0.10;;;21.70;48.20;;;;;;5030133;28;20037;-77
2021/04/06 10:27:16;;;;;;;1.75;0.10;;;21.70;48.40;;;;;;5027081;28;20021;-77
2021/04/06 10:29:43;;;;;;;1.13;0.30;;;21.70;47.80;;;;;;5023310;28;20470;-77
2021/04/06 10:32:43;;;;;;;1.70;0.10;;;21.70;48.10;;;;;;5024023;28;20033;-77
2021/04/06 10:35:14;;;;;;;0.55;0.13;;;21.70;48.40;;;;;;5016233;28;20071;-76
2021/04/06 10:37:46;;;;;;;1.77;0.10;;;21.70;48.50;;;;;;5038127;28;20033;-77
2021/04/06 10:40:36;;;;;;;1.95;0.10;;;21.60;48.50;;;;;;5021340;28;20025;-77
2021/04/06 10:43:12;;;;;;;2.35;0.20;;;21.60;48.80;;;;;;5026435;28;20049;-79
2021/04/06 10:45:44;;;;;;;0.52;0.10;;;21.50;48.80;;;;;;5029620;28;20049;-78
2021/04/06 10:48:16;;;;;;;0.73;0.15;;;21.50;49.00;;;;;;5029827;28;20120;-78
2021/04/06 10:50:49;;;;;;;;;;;21.60;48.80;;;;;;5029123;28;20460;-80
2021/04/06 10:53:31;;;;;;;2.08;0.10;;;21.60;48.50;;;;;;5038923;28;19909;-76
2021/04/06 10:56:07;;;;;;;1.08;0.10;;;21.60;48.80;;;;;;5028052;28;20021;-78
2021/04/06 10:58:51;;;;;;;1.17;0.10;;;21.60;48.90;;;;;;5022194;28;20038;-77
2021/04/06 11:01:24;;;;;;;0.40;0.10;;;21.60;48.90;;;;;;5014356;28;20025;-77
2021/04/06 11:03:58;;;;;;;1.80;0.10;;;21.60;49.30;;;;;;5022090;28;20030;-78
2021/04/06 11:06:35;;;;;;;2.05;0.08;;;21.70;49.40;;;;;;5023117;28;20031;-78
2021/04/06 11:09:20;;;;;;;0.35;0.00;;;21.90;49.60;;;;;;5025186;28;20376;-78
2021/04/06 11:11:49;;;;;;;0.40;0.10;;;21.90;49.20;;;;;;5045268;28;20021;-79
2021/04/06 11:14:20;;;;;;;0.43;0.10;;;22.10;49.00;;;;;;5041799;28;20022;-78
2021/04/06 11:16:47;;;;;;;0.25;0.00;;;22.20;48.80;;;;;;5039601;28;20044;-78
2021/04/06 11:19:29;;;;;;;1.23;0.10;;;22.30;48.70;;;;;;5023467;28;20466;-78
2021/04/06 11:22:00;;;;;;;0.85;0.10;;;22.40;48.70;;;;;;5024054;28;20029;-78
2021/04/06 11:24:28;;;;;;;0.77;0.10;;;22.50;48.60;;;;;;5024308;28;20033;-77
2021/04/06 11:26:55;;;;;;;1.55;0.13;;;22.50;48.60;;;;;;5026074;28;20033;-77
2021/04/06 11:29:24;;;;;;;0.68;0.10;;;22.50;48.50;;;;;;5007668;28;20021;-77
2021/04/06 11:31:52;;;;;;;0.38;0.10;;;22.60;48.40;;;;;;5050792;28;20033;-79
2021/04/06 11:34:19;;;;;;;0.40;0.10;;;22.60;48.30;;;;;;5035876;28;20021;-79
2021/04/06 11:36:47;;;;;;;0.57;0.10;;;22.60;48.40;;;;;;5034402;28;20053;-77
2021/04/06 11:39:17;;;;;;;0.75;0.10;;;22.60;48.30;;;;;;5047212;28;20021;-77
2021/04/06 11:41:44;;;;;;;0.60;0.10;;;22.60;48.40;;;;;;5012603;28;20071;-77
2021/04/06 11:44:12;;;;;;;2.05;0.22;;;22.60;48.30;;;;;;5027282;28;20036;-77
2021/04/06 11:46:39;;;;;;;0.98;0.15;;;22.70;48.10;;;;;;5042977;28;20033;-77
2021/04/06 11:49:06;;;;;;;0.50;0.10;;;22.80;48.50;;;;;;5044481;28;20025;-77
2021/04/06 11:51:32;;;;;;;0.43;0.20;;;22.90;48.60;;;;;;5044401;28;20059;-78
2021/04/06 11:53:58;;;;;;;0.50;0.10;;;22.90;48.50;;;;;;5010349;28;20043;-77
2021/04/06 11:56:24;;;;;;;0.63;0.10;;;23.00;48.80;;;;;;5011314;28;20021;-80
2021/04/06 11:58:50;;;;;;;0.40;0.10;;;23.00;48.60;;;;;;5046412;28;20070;-79
2021/04/06 12:01:16;;;;;;;1.15;0.20;;;23.00;48.70;;;;;;5011103;28;20025;-79
2021/04/06 12:03:43;;;;;;;0.30;0.10;;;23.00;48.90;;;;;;5043645;28;20053;-78
2021/04/06 12:06:09;;;;;;;0.80;0.08;;;23.00;49.10;;;;;;5026269;28;20029;-78
2021/04/06 12:08:35;;;;;;;0.47;0.10;;;22.90;49.30;;;;;;5027547;28;20638;-77
2021/04/06 12:11:01;;;;;;;0.35;0.10;;;22.90;49.50;;;;;;5030129;28;20025;-78
2021/04/06 12:13:28;;;;;;;1.95;0.10;;;22.80;49.50;;;;;;5031254;28;20025;-78
2021/04/06 12:15:55;;;;;;;1.40;0.20;;;22.90;49.60;;;;;;5024576;28;20395;-77
2021/04/06 12:18:21;;;;;;;1.67;0.10;;;22.90;49.90;;;;;;5044390;28;20116;-77
2021/04/06 12:20:47;;;;;;;0.40;0.00;;;22.90;49.90;;;;;;5027515;28;20024;-77
2021/04/06 12:23:13;;;;;;;1.20;0.13;;;22.90;50.00;;;;;;5010575;28;20033;-77
2021/04/06 12:25:39;;;;;;;1.75;0.10;;;22.90;49.90;;;;;;5025600;28;20029;-77
2021/04/06 12:28:06;;;;;;;0.38;0.10;;;22.80;49.80;;;;;;5007169;28;20399;-76
2021/04/06 12:30:32;;;;;;;0.40;0.10;;;22.90;50.20;;;;;;5028137;28;20486;-77
2021/04/06 12:33:01;;;;;;;0.40;0.10;;;;;;;;;;5043711;28;20018;-79
2021/04/06 12:35:27;;;;;;;0.20;0.00;;;22.70;59.50;;;;;;5028208;28;20045;-77
2021/04/06 12:37:55;;;;;;;0.47;0.10;;;22.80;58.30;;;;;;5018013;28;20032;-77
2021/04/06 12:40:21;;;;;;;0.35;0.03;;;22.70;57.70;;;;;;5009607;28;20056;-77
2021/04/06 12:42:47;;;;;;;0.63;0.00;;;22.80;57.40;;;;;;5026920;28;20029;-79
2021/04/06 12:45:15;;;;;;;0.38;0.00;;;22.70;57.50;;;;;;5028311;28;20548;-78
2021/04/06 12:47:41;;;;;;;2.30;0.10;;;22.60;57.30;;;;;;5029453;28;20044;-79
2021/04/06 12:50:08;;;;;;;0.93;0.10;;;22.60;57.30;;;;;;5044833;28;20053;-79
2021/04/06 12:52:34;;;;;;;0.95;0.10;;;22.60;57.20;;;;;;5017488;28;20029;-77
2021/04/06 12:55:00;;;;;;;0.40;0.05;;;22.60;55.90;;;;;;5043868;28;20025;-78
2021/04/06 12:57:26;;;;;;;0.20;0.00;;;22.60;56.20;;;;;;5043491;28;20032;-77
2021/04/06 12:59:56;;;;;;;0.63;0.10;;;22.60;55.60;;;;;;5010553;28;20391;-79
2021/04/06 13:02:23;;;;;;;0.38;0.00;;;22.60;55.50;;;;;;5047932;28;20025;-76
2021/04/06 13:04:49;;;;;;;0.50;0.10;;;22.60;55.50;;;;;;5024706;28;20025;-77
2021/04/06 13:07:16;;;;;;;0.30;0.10;;;22.60;54.90;;;;;;5023555;28;20052;-77
2021/04/06 13:09:42;;;;;;;0.20;0.00;;;22.60;54.60;;;;;;5010060;28;20032;-76
2021/04/06 13:12:08;;;;;;;1.25;0.10;;;22.60;54.60;;;;;;5044345;28;20463;-78
2021/04/06 13:14:35;;;;;;;1.15;0.00;;;22.70;55.00;;;;;;5028760;28;20043;-78